createdAt,value
2019-02-18T00:02:02.107Z,4.90
2019-02-18T00:04:31.520Z,4.90
2019-02-18T00:07:00.420Z,4.90
2019-02-18T00:09:29.230Z,4.90
2019-02-18T00:11:58.090Z,4.90
2019-02-18T00:14:27.003Z,4.90
2019-02-18T00:16:55.799Z,4.90
2019-02-18T00:19:25.635Z,4.90
2019-02-18T00:21:54.606Z,4.90
2019-02-18T00:24:23.715Z,4.90
2019-02-18T00:26:52.667Z,4.90
2019-02-18T00:29:21.432Z,4.90
2019-02-18T00:31:50.235Z,4.80
2019-02-18T00:34:19.014Z,4.80
2019-02-18T00:36:47.896Z,4.80
2019-02-18T00:39:16.777Z,4.80
2019-02-18T00:41:45.802Z,4.80
2019-02-18T00:44:14.603Z,4.80
2019-02-18T00:46:43.506Z,4.80
2019-02-18T00:49:12.207Z,4.70
2019-02-18T00:51:41.027Z,4.70
2019-02-18T00:54:09.820Z,4.70
2019-02-18T00:56:38.600Z,4.60
2019-02-18T00:59:07.312Z,4.60
2019-02-18T01:01:36.451Z,4.50
2019-02-18T01:04:05.180Z,4.50
2019-02-18T01:06:34.342Z,4.50
2019-02-18T01:09:03.379Z,4.50
2019-02-18T01:11:32.276Z,4.50
2019-02-18T01:14:01.068Z,4.40
2019-02-18T01:16:29.981Z,4.40
2019-02-18T01:18:59.070Z,4.40
2019-02-18T01:21:27.827Z,4.50
2019-02-18T01:23:57.133Z,4.40
2019-02-18T01:26:27.023Z,4.50
2019-02-18T01:28:55.806Z,4.40
2019-02-18T01:31:24.663Z,4.40
2019-02-18T01:33:53.452Z,4.40
2019-02-18T01:36:23.163Z,4.50
2019-02-18T01:38:52.292Z,4.50
2019-02-18T01:41:21.540Z,4.40
2019-02-18T01:43:50.246Z,4.40
2019-02-18T01:46:19.272Z,4.40
2019-02-18T01:48:48.293Z,4.40
2019-02-18T01:51:17.079Z,4.40
2019-02-18T01:53:46.056Z,4.30
2019-02-18T01:56:15.194Z,4.20
2019-02-18T01:58:44.295Z,4.20
2019-02-18T02:01:13.050Z,4.20
2019-02-18T02:03:41.922Z,4.20
2019-02-18T02:06:10.743Z,4.20
2019-02-18T02:08:39.697Z,4.10
2019-02-18T02:11:08.755Z,4.10
2019-02-18T02:13:38.056Z,4.10
2019-02-18T02:16:11.810Z,4.00
2019-02-18T02:18:40.723Z,4.00
2019-02-18T02:21:09.615Z,4.00
2019-02-18T02:23:38.996Z,4.00
2019-02-18T02:26:08.083Z,3.90
2019-02-18T02:28:36.983Z,3.90
2019-02-18T02:31:05.709Z,3.80
2019-02-18T02:33:34.620Z,3.80
2019-02-18T02:36:03.541Z,3.80
2019-02-18T02:38:32.669Z,3.70
2019-02-18T02:41:01.733Z,3.70
2019-02-18T02:43:30.695Z,3.70
2019-02-18T02:45:59.668Z,3.70
2019-02-18T02:48:29.451Z,3.70
2019-02-18T02:50:58.295Z,3.70
2019-02-18T02:53:28.006Z,3.70
2019-02-18T02:55:56.847Z,3.70
2019-02-18T02:58:26.187Z,3.70
2019-02-18T03:00:55.138Z,3.70
2019-02-18T03:03:24.061Z,3.70
2019-02-18T03:05:52.821Z,3.60
2019-02-18T03:08:21.764Z,3.70
2019-02-18T03:10:50.526Z,3.60
2019-02-18T03:13:19.750Z,3.60
2019-02-18T03:15:48.691Z,3.60
2019-02-18T03:18:17.817Z,3.60
2019-02-18T03:20:47.221Z,3.60
2019-02-18T03:23:16.146Z,3.60
2019-02-18T03:25:46.657Z,3.60
2019-02-18T03:28:37.460Z,3.50
2019-02-18T03:31:17.069Z,3.50
2019-02-18T03:33:49.805Z,3.50
2019-02-18T03:36:18.711Z,3.50
2019-02-18T03:38:47.613Z,3.60
2019-02-18T03:41:16.415Z,3.50
2019-02-18T03:43:45.582Z,3.50
2019-02-18T03:46:14.437Z,3.40
2019-02-18T03:48:43.236Z,3.40
2019-02-18T03:51:12.277Z,3.40
2019-02-18T03:53:41.316Z,3.40
2019-02-18T03:56:10.235Z,3.40
2019-02-18T03:58:39.286Z,3.30
2019-02-18T04:01:08.519Z,3.30
2019-02-18T04:03:37.457Z,3.30
2019-02-18T04:06:06.391Z,3.20
2019-02-18T04:08:42.604Z,3.20
2019-02-18T04:11:05.650Z,3.20
2019-02-18T04:13:34.539Z,3.20
2019-02-18T04:16:03.494Z,3.20
2019-02-18T04:18:32.775Z,3.20
2019-02-18T04:21:03.513Z,3.10
2019-02-18T04:23:32.340Z,3.10
2019-02-18T04:26:01.259Z,3.10
2019-02-18T04:28:30.130Z,3.10
2019-02-18T04:30:59.207Z,3.10
2019-02-18T04:33:28.104Z,3.10
2019-02-18T04:35:56.982Z,3.10
2019-02-18T04:38:26.267Z,3.10
2019-02-18T04:40:55.459Z,3.10
2019-02-18T04:43:24.323Z,3.10
2019-02-18T04:45:53.176Z,3.10
2019-02-18T04:48:21.953Z,3.00
2019-02-18T04:50:50.861Z,3.10
2019-02-18T04:53:20.094Z,3.00
2019-02-18T04:55:49.353Z,3.00
2019-02-18T04:58:18.263Z,3.00
2019-02-18T05:00:47.030Z,3.00
2019-02-18T05:03:16.380Z,3.00
2019-02-18T05:05:45.142Z,3.10
2019-02-18T05:08:14.032Z,3.00
2019-02-18T05:10:42.932Z,3.00
2019-02-18T05:13:11.746Z,2.90
2019-02-18T05:15:40.865Z,2.90
2019-02-18T05:18:10.108Z,2.80
2019-02-18T05:20:39.067Z,2.80
2019-02-18T05:23:08.524Z,2.80
2019-02-18T05:25:37.485Z,2.80
2019-02-18T05:28:06.477Z,2.90
2019-02-18T05:30:35.404Z,2.80
2019-02-18T05:33:05.019Z,2.80
2019-02-18T05:35:33.928Z,2.80
2019-02-18T05:38:02.759Z,2.70
2019-02-18T05:40:32.005Z,2.70
2019-02-18T05:43:00.964Z,2.80
2019-02-18T05:45:29.691Z,2.70
2019-02-18T05:47:58.503Z,2.70
2019-02-18T05:50:27.264Z,2.80
2019-02-18T05:52:56.106Z,2.70
2019-02-18T05:55:25.509Z,2.80
2019-02-18T05:57:54.727Z,2.70
2019-02-18T06:00:23.691Z,2.70
2019-02-18T06:02:52.927Z,2.70
2019-02-18T06:05:21.822Z,2.70
2019-02-18T06:07:50.772Z,2.70
2019-02-18T06:10:19.540Z,2.70
2019-02-18T06:12:48.497Z,2.70
2019-02-18T06:15:17.417Z,2.70
2019-02-18T06:17:46.303Z,2.60
2019-02-18T06:20:15.617Z,2.60
2019-02-18T06:22:44.561Z,2.60
2019-02-18T06:25:13.602Z,2.60
2019-02-18T06:27:42.513Z,2.60
2019-02-18T06:30:11.415Z,2.60
2019-02-18T06:32:40.342Z,2.50
2019-02-18T06:35:09.185Z,2.60
2019-02-18T06:37:38.192Z,2.60
2019-02-18T06:40:07.828Z,2.60
2019-02-18T06:42:37.006Z,2.60
2019-02-18T06:45:34.137Z,2.60
2019-02-18T06:48:09.872Z,2.60
2019-02-18T06:50:38.746Z,2.70
2019-02-18T06:53:07.529Z,2.70
2019-02-18T06:55:36.615Z,2.70
2019-02-18T06:58:24.557Z,2.80
2019-02-18T07:00:59.394Z,2.80
2019-02-18T07:03:59.765Z,2.80
2019-02-18T07:06:38.838Z,2.90
2019-02-18T07:09:13.883Z,2.90
2019-02-18T07:11:57.030Z,3.00
2019-02-18T07:14:26.296Z,3.00
2019-02-18T07:16:55.251Z,3.00
2019-02-18T07:19:24.043Z,3.10
2019-02-18T07:21:52.953Z,3.10
2019-02-18T07:24:21.863Z,3.20
2019-02-18T07:26:50.687Z,3.30
2019-02-18T07:29:19.622Z,3.30
2019-02-18T07:31:48.416Z,3.40
2019-02-18T07:34:17.271Z,3.50
2019-02-18T07:36:46.591Z,3.60
2019-02-18T07:39:15.387Z,3.60
2019-02-18T07:41:44.262Z,3.70
2019-02-18T07:44:13.022Z,3.80
2019-02-18T07:46:42.847Z,3.80
2019-02-18T07:49:12.108Z,3.90
2019-02-18T07:51:40.949Z,4.00
2019-02-18T07:54:10.416Z,4.10
2019-02-18T07:56:39.344Z,4.10
2019-02-18T07:59:08.376Z,4.20
2019-02-18T08:01:37.447Z,4.30
2019-02-18T08:04:07.378Z,4.40
2019-02-18T08:06:36.413Z,4.50
2019-02-18T08:09:06.584Z,4.60
2019-02-18T08:11:35.555Z,4.70
2019-02-18T08:14:04.382Z,4.70
2019-02-18T08:16:34.056Z,4.80
2019-02-18T08:19:02.928Z,4.90
2019-02-18T08:21:32.764Z,5.10
2019-02-18T08:24:01.800Z,5.10
2019-02-18T08:26:30.672Z,5.30
2019-02-18T08:28:59.507Z,5.40
2019-02-18T08:31:28.479Z,5.50
2019-02-18T08:33:57.473Z,5.70
2019-02-18T08:36:26.341Z,5.70
2019-02-18T08:38:55.215Z,5.80
2019-02-18T08:41:24.011Z,6.00
2019-02-18T08:43:52.791Z,6.10
2019-02-18T08:46:21.735Z,6.30
2019-02-18T08:48:50.889Z,6.50
2019-02-18T08:51:19.968Z,6.60
2019-02-18T08:53:49.023Z,7.10
2019-02-18T08:56:18.152Z,7.70
2019-02-18T08:58:47.051Z,8.60
2019-02-18T09:01:15.803Z,9.20
2019-02-18T09:03:45.018Z,10.10
2019-02-18T09:06:14.258Z,9.70
2019-02-18T09:08:43.073Z,10.00
2019-02-18T09:11:11.859Z,10.20
2019-02-18T09:13:41.192Z,10.50
2019-02-18T09:16:10.188Z,10.30
2019-02-18T09:18:39.208Z,10.90
2019-02-18T09:21:08.048Z,11.50
2019-02-18T09:23:45.747Z,12.10
2019-02-18T09:26:16.346Z,11.90
2019-02-18T09:28:45.317Z,11.60
2019-02-18T09:31:14.702Z,12.40
2019-02-18T09:33:43.976Z,12.60
2019-02-18T09:36:12.812Z,12.20
2019-02-18T09:38:42.083Z,12.20
2019-02-18T09:41:10.916Z,12.10
2019-02-18T09:43:39.819Z,12.80
2019-02-18T09:46:08.568Z,13.10
2019-02-18T09:48:37.476Z,13.30
2019-02-18T09:51:06.300Z,13.30
2019-02-18T09:53:35.347Z,13.70
2019-02-18T09:56:04.125Z,14.30
2019-02-18T09:58:33.018Z,14.40
2019-02-18T10:01:01.871Z,14.10
2019-02-18T10:03:32.019Z,13.80
2019-02-18T10:06:01.803Z,14.00
2019-02-18T10:08:30.912Z,14.40
2019-02-18T10:11:00.120Z,14.70
2019-02-18T10:13:28.843Z,15.80
2019-02-18T10:15:58.154Z,16.50
2019-02-18T10:18:27.204Z,16.10
2019-02-18T10:20:56.189Z,15.50
2019-02-18T10:23:25.603Z,15.90
2019-02-18T10:25:54.667Z,16.00
2019-02-18T10:28:23.437Z,16.40
2019-02-18T10:30:52.336Z,16.20
2019-02-18T10:33:21.163Z,16.40
2019-02-18T10:35:50.140Z,16.30
2019-02-18T10:38:19.562Z,15.90
2019-02-18T10:40:48.503Z,15.80
2019-02-18T10:43:17.668Z,16.80
2019-02-18T10:45:46.520Z,16.50
2019-02-18T10:48:15.337Z,16.00
2019-02-18T10:50:44.905Z,16.70
2019-02-18T10:53:13.843Z,16.60
2019-02-18T10:55:42.794Z,16.80
2019-02-18T10:58:12.600Z,17.60
2019-02-18T11:00:41.368Z,17.00
2019-02-18T11:03:10.512Z,17.20
2019-02-18T11:05:39.659Z,17.80
2019-02-18T11:08:08.819Z,18.20
2019-02-18T11:10:37.863Z,19.20
2019-02-18T11:13:06.648Z,19.10
2019-02-18T11:15:35.509Z,18.70
2019-02-18T11:18:04.563Z,18.20
2019-02-18T11:20:33.416Z,18.10
2019-02-18T11:23:02.934Z,17.60
2019-02-18T11:25:31.901Z,17.70
2019-02-18T11:28:01.123Z,18.50
2019-02-18T11:30:30.176Z,17.80
2019-02-18T11:32:59.064Z,17.80
2019-02-18T11:35:28.010Z,18.00
2019-02-18T11:37:56.768Z,17.80
2019-02-18T11:40:26.276Z,18.00
2019-02-18T11:42:55.689Z,18.70
2019-02-18T11:45:26.034Z,19.60
2019-02-18T11:47:54.879Z,19.30
2019-02-18T11:50:23.932Z,19.10
2019-02-18T11:52:52.875Z,18.60
2019-02-18T11:55:21.814Z,19.10
2019-02-18T11:57:50.578Z,19.50
2019-02-18T12:00:20.527Z,19.50
2019-02-18T12:02:49.873Z,19.40
2019-02-18T12:05:18.849Z,19.20
2019-02-18T12:07:47.678Z,20.40
2019-02-18T12:10:16.732Z,20.10
2019-02-18T12:12:45.670Z,19.90
2019-02-18T12:15:14.713Z,19.90
2019-02-18T12:17:43.973Z,19.30
2019-02-18T12:20:13.326Z,19.20
2019-02-18T12:22:42.264Z,19.50
2019-02-18T12:25:11.495Z,19.50
2019-02-18T12:27:40.745Z,19.10
2019-02-18T12:30:11.131Z,19.60
2019-02-18T12:32:39.930Z,19.80
2019-02-18T12:35:08.910Z,19.70
2019-02-18T12:37:38.020Z,19.60
2019-02-18T12:40:08.018Z,19.70
2019-02-18T12:42:37.131Z,19.90
2019-02-18T12:45:07.063Z,19.60
2019-02-18T12:47:36.235Z,19.90
2019-02-18T12:50:05.568Z,20.30
2019-02-18T12:52:35.014Z,20.60
2019-02-18T12:55:04.223Z,20.40
2019-02-18T12:57:33.658Z,20.60
2019-02-18T13:00:02.965Z,20.40
2019-02-18T13:02:32.349Z,20.20
2019-02-18T13:05:01.470Z,20.00
2019-02-18T13:07:30.415Z,21.10
2019-02-18T13:09:59.471Z,20.30
2019-02-18T13:12:28.511Z,20.50
2019-02-18T13:14:57.343Z,20.40
2019-02-18T13:17:26.887Z,20.60
2019-02-18T13:19:55.982Z,20.60
2019-02-18T13:22:25.137Z,20.50
2019-02-18T13:24:54.188Z,20.20
2019-02-18T13:27:23.632Z,20.10
2019-02-18T13:29:54.221Z,20.00
2019-02-18T13:32:23.278Z,20.40
2019-02-18T13:34:52.203Z,20.70
2019-02-18T13:37:20.999Z,21.10
2019-02-18T13:39:49.942Z,20.40
2019-02-18T13:42:20.039Z,19.90
2019-02-18T13:44:48.872Z,19.80
2019-02-18T13:47:19.123Z,19.90
2019-02-18T13:49:47.999Z,20.40
2019-02-18T13:52:17.002Z,21.70
2019-02-18T13:54:45.993Z,20.80
2019-02-18T13:57:15.264Z,20.90
2019-02-18T13:59:44.143Z,20.40
2019-02-18T14:02:13.379Z,20.60
2019-02-18T14:04:42.665Z,20.10
2019-02-18T14:07:12.509Z,19.80
2019-02-18T14:09:41.603Z,19.50
2019-02-18T14:12:16.069Z,19.20
2019-02-18T14:14:41.667Z,19.60
2019-02-18T14:17:10.950Z,20.20
2019-02-18T14:19:40.076Z,19.80
2019-02-18T14:22:09.599Z,20.00
2019-02-18T14:24:38.603Z,20.00
2019-02-18T14:27:07.515Z,19.30
2019-02-18T14:29:36.847Z,19.30
2019-02-18T14:32:06.226Z,18.90
2019-02-18T14:34:35.088Z,18.90
2019-02-18T14:37:04.145Z,18.80
2019-02-18T14:39:33.126Z,18.60
2019-02-18T14:42:02.445Z,18.70
2019-02-18T14:44:31.566Z,18.40
2019-02-18T14:47:00.771Z,18.20
2019-02-18T14:49:29.656Z,18.00
2019-02-18T14:51:58.704Z,18.10
2019-02-18T14:54:27.686Z,18.60
2019-02-18T14:56:56.548Z,19.10
2019-02-18T14:59:25.633Z,18.50
2019-02-18T15:01:54.587Z,18.00
2019-02-18T15:04:23.527Z,17.50
2019-02-18T15:06:52.773Z,17.70
2019-02-18T15:09:21.856Z,17.30
2019-02-18T15:11:50.725Z,17.40
2019-02-18T15:14:19.646Z,16.90
2019-02-18T15:16:48.550Z,16.50
2019-02-18T15:19:17.438Z,16.20
2019-02-18T15:21:46.618Z,15.60
2019-02-18T15:24:15.543Z,15.10
2019-02-18T15:26:44.529Z,14.90
2019-02-18T15:29:13.909Z,14.70
2019-02-18T15:31:42.924Z,14.50
2019-02-18T15:34:11.865Z,14.20
2019-02-18T15:36:41.265Z,14.00
2019-02-18T15:39:10.547Z,13.90
2019-02-18T15:41:39.584Z,13.70
2019-02-18T15:44:08.771Z,13.50
2019-02-18T15:46:39.600Z,13.40
2019-02-18T15:49:09.230Z,13.30
2019-02-18T15:51:38.163Z,13.30
2019-02-18T15:54:07.012Z,13.20
2019-02-18T15:56:36.103Z,13.10
2019-02-18T15:59:05.785Z,12.90
2019-02-18T16:01:34.695Z,12.80
2019-02-18T16:04:03.627Z,12.70
2019-02-18T16:06:51.995Z,12.60
2019-02-18T16:09:20.840Z,12.50
2019-02-18T16:11:49.747Z,12.40
2019-02-18T16:14:19.199Z,12.30
2019-02-18T16:16:48.189Z,12.20
2019-02-18T16:19:17.011Z,12.10
2019-02-18T16:21:46.277Z,12.10
2019-02-18T16:24:19.924Z,12.00
2019-02-18T16:26:46.571Z,11.90
2019-02-18T16:29:15.800Z,11.80
2019-02-18T16:31:44.605Z,11.70
2019-02-18T16:34:14.005Z,11.50
2019-02-18T16:36:43.043Z,11.40
2019-02-18T16:39:12.211Z,11.40
2019-02-18T16:41:41.229Z,11.30
2019-02-18T16:44:10.405Z,11.20
2019-02-18T16:46:39.503Z,11.00
2019-02-18T16:49:09.283Z,11.00
2019-02-18T16:51:38.226Z,10.90
2019-02-18T16:54:07.751Z,10.80
2019-02-18T16:56:37.061Z,10.70
2019-02-18T16:59:05.972Z,10.60
2019-02-18T17:01:35.548Z,10.60
2019-02-18T17:04:05.011Z,10.50
2019-02-18T17:06:34.137Z,10.40
2019-02-18T17:09:05.400Z,10.30
2019-02-18T17:11:35.368Z,10.20
2019-02-18T17:14:04.473Z,10.10
2019-02-18T17:16:33.365Z,9.90
2019-02-18T17:19:02.369Z,9.80
2019-02-18T17:21:31.272Z,9.70
2019-02-18T17:24:00.579Z,9.70
2019-02-18T17:26:29.443Z,9.60
2019-02-18T17:28:58.717Z,9.40
2019-02-18T17:31:27.904Z,9.40
2019-02-18T17:33:56.954Z,9.30
2019-02-18T17:36:25.973Z,9.20
2019-02-18T17:38:54.839Z,9.10
2019-02-18T17:41:24.180Z,9.00
2019-02-18T17:43:53.490Z,8.90
2019-02-18T17:46:22.697Z,8.80
2019-02-18T17:48:52.089Z,8.80
2019-02-18T17:51:21.071Z,8.80
2019-02-18T17:53:50.363Z,8.70
2019-02-18T17:56:19.225Z,8.50
2019-02-18T17:58:48.517Z,8.50
2019-02-18T18:01:17.440Z,8.50
2019-02-18T18:03:47.001Z,8.50
2019-02-18T18:06:15.987Z,8.40
2019-02-18T18:08:45.213Z,8.30
2019-02-18T18:11:14.722Z,8.30
2019-02-18T18:13:44.340Z,8.20
2019-02-18T18:16:13.276Z,8.30
2019-02-18T18:18:42.471Z,8.20
2019-02-18T18:21:11.557Z,8.10
2019-02-18T18:23:41.133Z,8.00
2019-02-18T18:26:10.011Z,7.90
2019-02-18T18:28:39.334Z,7.90
2019-02-18T18:31:08.375Z,7.80
2019-02-18T18:33:37.419Z,7.80
2019-02-18T18:36:06.416Z,7.70
2019-02-18T18:38:35.182Z,7.70
2019-02-18T18:41:04.238Z,7.60
2019-02-18T18:43:34.115Z,7.60
2019-02-18T18:46:03.606Z,7.60
2019-02-18T18:48:32.760Z,7.50
2019-02-18T18:51:02.001Z,7.50
2019-02-18T18:53:30.998Z,7.50
2019-02-18T18:56:00.161Z,7.50
2019-02-18T18:58:29.522Z,7.40
2019-02-18T19:00:58.537Z,7.40
2019-02-18T19:03:27.359Z,7.30
2019-02-18T19:05:56.179Z,7.30
2019-02-18T19:08:25.369Z,7.30
2019-02-18T19:10:54.204Z,7.30
2019-02-18T19:13:23.585Z,7.30
2019-02-18T19:15:52.531Z,7.20
2019-02-18T19:18:21.500Z,7.10
2019-02-18T19:20:50.636Z,7.20
2019-02-18T19:23:19.690Z,7.10
2019-02-18T19:25:48.564Z,7.10
2019-02-18T19:28:17.455Z,6.90
2019-02-18T19:30:46.371Z,6.90
2019-02-18T19:33:15.240Z,6.90
2019-02-18T19:35:44.111Z,6.80
2019-02-18T19:38:12.944Z,6.80
2019-02-18T19:40:42.501Z,6.80
2019-02-18T19:43:11.362Z,6.80
2019-02-18T19:45:40.131Z,6.70
2019-02-18T19:48:08.927Z,6.60
2019-02-18T19:50:37.830Z,6.60
2019-02-18T19:53:06.766Z,6.60
2019-02-18T19:55:35.806Z,6.60
2019-02-18T19:58:04.898Z,6.50
2019-02-18T20:00:33.853Z,6.40
2019-02-18T20:03:03.082Z,6.40
2019-02-18T20:05:31.995Z,6.40
2019-02-18T20:08:00.879Z,6.40
2019-02-18T20:10:29.799Z,6.40
2019-02-18T20:12:58.898Z,6.40
2019-02-18T20:15:27.822Z,6.30
2019-02-18T20:17:56.674Z,6.30
2019-02-18T20:20:25.552Z,6.20
2019-02-18T20:22:54.745Z,6.10
2019-02-18T20:25:23.699Z,6.20
2019-02-18T20:27:52.907Z,6.20
2019-02-18T20:30:22.291Z,6.10
2019-02-18T20:32:51.175Z,6.10
2019-02-18T20:35:20.552Z,6.00
2019-02-18T20:37:49.629Z,6.10
2019-02-18T20:40:18.715Z,6.00
2019-02-18T20:42:47.669Z,6.00
2019-02-18T20:45:16.611Z,5.90
2019-02-18T20:47:45.572Z,5.90
2019-02-18T20:50:14.718Z,5.90
2019-02-18T20:52:44.592Z,5.80
2019-02-18T20:55:13.573Z,5.70
2019-02-18T20:57:42.678Z,5.70
2019-02-18T21:00:16.489Z,5.70
2019-02-18T21:02:45.488Z,5.70
2019-02-18T21:05:14.395Z,5.60
2019-02-18T21:07:43.367Z,5.60
2019-02-18T21:10:13.473Z,5.60
2019-02-18T21:12:42.314Z,5.50
2019-02-18T21:15:11.407Z,5.50
2019-02-18T21:17:40.343Z,5.60
2019-02-18T21:20:09.617Z,5.70
2019-02-18T21:22:38.482Z,5.60
2019-02-18T21:25:07.936Z,5.60
2019-02-18T21:27:36.789Z,5.40
2019-02-18T21:30:06.404Z,5.60
2019-02-18T21:32:35.287Z,5.50
2019-02-18T21:35:04.592Z,5.60
2019-02-18T21:37:33.523Z,5.50
2019-02-18T21:40:02.702Z,5.40
2019-02-18T21:42:31.581Z,5.40
2019-02-18T21:45:00.761Z,5.40
2019-02-18T21:47:29.722Z,5.40
2019-02-18T21:49:58.606Z,5.30
2019-02-18T21:52:27.482Z,5.30
2019-02-18T21:54:56.682Z,5.30
2019-02-18T21:57:25.571Z,5.30
2019-02-18T21:59:54.805Z,5.40
2019-02-18T22:02:23.648Z,5.40
2019-02-18T22:04:52.542Z,5.40
2019-02-18T22:07:21.498Z,5.30
2019-02-18T22:09:51.102Z,5.30
2019-02-18T22:12:19.959Z,5.20
2019-02-18T22:14:48.889Z,5.20
2019-02-18T22:17:18.016Z,5.20
2019-02-18T22:19:46.960Z,5.20
2019-02-18T22:22:15.857Z,5.10
2019-02-18T22:24:44.730Z,5.10
2019-02-18T22:27:13.878Z,5.10
2019-02-18T22:29:42.791Z,5.10
2019-02-18T22:32:12.048Z,5.10
2019-02-18T22:34:41.629Z,5.10
2019-02-18T22:37:10.482Z,5.10
2019-02-18T22:39:39.410Z,5.10
2019-02-18T22:42:08.678Z,5.10
2019-02-18T22:44:41.927Z,5.00
2019-02-18T22:47:08.282Z,4.90
2019-02-18T22:49:37.769Z,5.00
2019-02-18T22:52:06.698Z,4.90
2019-02-18T22:54:35.600Z,5.00
2019-02-18T22:57:04.543Z,5.00
2019-02-18T22:59:33.793Z,5.00
2019-02-18T23:02:03.067Z,5.00
2019-02-18T23:04:32.029Z,4.90
2019-02-18T23:07:00.946Z,4.90
2019-02-18T23:09:29.938Z,4.90
2019-02-18T23:11:59.216Z,4.90
2019-02-18T23:14:28.378Z,4.90
2019-02-18T23:16:57.235Z,4.90
2019-02-18T23:19:26.386Z,5.00
2019-02-18T23:21:55.222Z,4.90
2019-02-18T23:24:24.129Z,4.90
2019-02-18T23:26:52.995Z,4.80
2019-02-18T23:29:22.194Z,4.80
2019-02-18T23:31:51.481Z,4.80
2019-02-18T23:34:21.050Z,4.70
2019-02-18T23:36:49.918Z,4.80
2019-02-18T23:39:18.674Z,4.80
2019-02-18T23:41:47.545Z,4.70
2019-02-18T23:44:16.863Z,4.70
2019-02-18T23:46:45.754Z,4.80
2019-02-18T23:49:14.575Z,4.80
2019-02-18T23:51:43.508Z,4.80
2019-02-18T23:54:12.344Z,4.80
2019-02-18T23:56:41.337Z,4.70
2019-02-18T23:59:10.283Z,4.80
